Time;durP1;ratioP1;P1;durP2;ratioP2;P2;SDS_P1;SDS_P2;PMS_P1;PMS_P2;Temp;Humidity;BMP_temperature;BMP_pressure;BME280_temperature;BME280_humidity;BME280_pressure;Samples;Min_cycle;Max_cycle;Signal;HPM_P1;HPM_P2
2021/06/30 00:01:03;;;;;;;3.72;2.30;;;;;;;16.83;75.17;101037.94;5108145;27;1224198;-50
2021/06/30 00:03:49;;;;;;;2.55;2.15;;;;;;;16.83;75.37;101040.69;5069564;28;20204;-48
2021/06/30 00:06:34;;;;;;;4.38;2.22;;;;;;;16.71;74.85;101037.59;5069470;28;20406;-51
2021/06/30 00:09:17;;;;;;;2.55;2.30;;;;;;;16.70;74.81;101038.72;5101900;27;1225702;-47
2021/06/30 00:12:02;;;;;;;2.40;2.10;;;;;;;16.61;74.95;101038.59;5069047;28;20399;-49
2021/06/30 00:14:46;;;;;;;3.03;2.20;;;;;;;16.57;75.69;101038.41;5088980;27;1928084;-49
2021/06/30 00:17:29;;;;;;;2.63;2.40;;;;;;;16.57;75.22;101030.16;5100050;27;1256925;-48
2021/06/30 00:20:14;;;;;;;1.73;1.63;;;;;;;16.68;75.53;101032.69;5069679;28;20391;-50
2021/06/30 00:22:58;;;;;;;2.97;2.50;;;;;;;16.78;75.28;101027.84;5069622;28;20496;-48
2021/06/30 00:25:43;;;;;;;5.75;2.53;;;;;;;16.81;74.89;101032.75;5069334;28;20391;-49
2021/06/30 00:28:29;;;;;;;3.58;2.50;;;;;;;16.66;74.77;101022.00;5069514;28;20383;-49
2021/06/30 00:31:17;;;;;;;3.90;2.53;;;;;;;16.58;75.67;101033.72;5109927;27;20427;-50
2021/06/30 00:34:02;;;;;;;3.45;2.60;;;;;;;16.57;75.49;101037.56;5110322;27;20816;-47
2021/06/30 00:36:48;;;;;;;5.53;2.80;;;;;;;16.50;75.34;101029.72;5110261;27;20327;-49
2021/06/30 00:39:31;;;;;;;2.85;2.20;;;;;;;16.54;75.52;101027.97;5112142;27;1236315;-49
2021/06/30 00:42:18;;;;;;;3.80;2.50;;;;;;;16.57;75.21;101030.16;5109766;27;20319;-49
2021/06/30 00:45:07;;;;;;;4.22;2.60;;;;;;;16.60;74.46;101032.28;5069450;28;20469;-50
2021/06/30 00:47:52;;;;;;;5.10;2.30;;;;;;;16.58;74.75;101029.00;5069486;28;20394;-51
2021/06/30 00:50:36;;;;;;;4.10;2.30;;;;;;;16.61;74.50;101027.59;5099455;27;1235245;-48
2021/06/30 00:53:20;;;;;;;3.50;2.25;;;;;;;16.55;74.19;101034.31;5006579;28;20881;-51
2021/06/30 00:56:06;;;;;;;3.33;2.42;;;;;;;16.48;74.32;101031.97;5117949;27;1234572;-48
2021/06/30 00:58:54;;;;;;;4.28;2.60;;;;;;;16.46;74.41;101031.44;5069654;28;20449;-49
2021/06/30 01:01:40;;;;;;;3.42;2.20;;;;;;;16.39;74.68;101036.53;5109653;27;20611;-47
2021/06/30 01:04:24;;;;;;;3.50;2.33;;;;;;;16.37;74.67;101031.31;5097462;27;1245307;-47
2021/06/30 01:07:08;;;;;;;5.13;2.65;;;;;;;16.42;74.41;101030.41;5069754;28;20457;-49
2021/06/30 01:09:52;;;;;;;6.43;2.78;;;;;;;16.47;74.57;101035.81;5089205;27;20992;-49
2021/06/30 01:12:38;;;;;;;3.22;2.75;;;;;;;16.48;74.68;101036.66;5069606;28;20387;-49
2021/06/30 01:15:22;;;;;;;4.70;2.22;;;;;;;16.41;75.09;101034.28;5069245;28;20386;-47
2021/06/30 01:18:06;;;;;;;5.35;2.38;;;;;;;16.43;74.81;101023.81;5097875;27;1229060;-50
2021/06/30 01:20:52;;;;;;;3.53;2.47;;;;;;;16.50;75.13;101023.38;5069669;28;20986;-47
2021/06/30 01:23:39;;;;;;;5.38;2.53;;;;;;;16.46;74.99;101020.44;5089371;28;20324;-49
2021/06/30 01:26:23;;;;;;;5.10;2.80;;;;;;;16.45;75.35;101021.56;5069475;28;20382;-50
2021/06/30 01:29:11;;;;;;;4.03;2.47;;;;;;;16.47;75.31;101015.75;5110294;27;20108;-50
2021/06/30 01:31:56;;;;;;;2.45;2.25;;;;;;;16.37;75.85;101017.56;5069304;28;20385;-49
2021/06/30 01:34:40;;;;;;;3.30;2.47;;;;;;;16.30;76.07;101017.13;5069661;28;20387;-48
2021/06/30 01:37:25;;;;;;;5.65;2.63;;;;;;;16.30;76.08;101014.38;5069528;28;20484;-50
2021/06/30 01:40:10;;;;;;;3.00;2.30;;;;;;;16.26;75.92;101020.78;5069157;28;20994;-44
2021/06/30 01:42:57;;;;;;;3.65;2.30;;;;;;;16.16;76.14;101014.38;5069779;28;20488;-50
2021/06/30 01:45:42;;;;;;;3.95;2.67;;;;;;;16.17;75.91;101010.50;5069478;28;20387;-49
2021/06/30 01:48:28;;;;;;;4.07;2.67;;;;;;;16.06;76.48;101017.28;5069466;28;20387;-49
2021/06/30 01:51:13;;;;;;;3.15;2.53;;;;;;;16.04;76.59;101008.50;5069542;28;20471;-51
2021/06/30 01:54:00;;;;;;;4.32;2.50;;;;;;;16.08;77.00;101008.72;5109733;27;20473;-49
2021/06/30 01:56:48;;;;;;;2.35;2.15;;;;;;;16.10;76.88;100999.06;5089915;27;20827;-49
2021/06/30 01:59:33;;;;;;;2.42;2.22;;;;;;;16.10;76.62;100999.06;5069410;28;20387;-50
2021/06/30 02:02:18;;;;;;;2.55;2.30;;;;;;;16.05;76.92;100993.66;5069358;28;20394;-48
2021/06/30 02:05:24;;;;;;;2.22;2.05;;;;;;;16.08;76.57;100997.75;5089736;28;20394;-49
2021/06/30 02:08:09;;;;;;;2.65;2.25;;;;;;;16.02;76.72;100994.28;5069073;28;20387;-49
2021/06/30 02:10:54;;;;;;;2.40;2.20;;;;;;;16.06;77.39;100989.78;5069672;28;20391;-49
2021/06/30 02:13:38;;;;;;;4.82;2.35;;;;;;;16.06;77.18;100980.72;5069689;28;20387;-50
2021/06/30 02:16:23;;;;;;;2.60;2.40;;;;;;;16.08;77.65;100973.81;5069497;28;20390;-49
2021/06/30 02:19:34;;;;;;;2.40;2.20;;;;;;;16.09;76.94;100961.72;5096640;27;1234401;-47
2021/06/30 02:22:18;;;;;;;2.47;2.10;;;;;;;16.09;76.91;100956.22;5106530;27;1232367;-49
2021/06/30 02:25:04;;;;;;;2.22;2.03;;;;;;;15.96;76.80;100974.28;5069497;28;20587;-48
2021/06/30 02:27:51;;;;;;;2.55;2.15;;;;;;;15.92;77.18;100967.78;5110221;27;20331;-49
2021/06/30 02:30:35;;;;;;;2.15;1.95;;;;;;;15.79;77.30;100975.97;5069521;28;20466;-49
2021/06/30 02:33:19;;;;;;;2.63;2.25;;;;;;;15.84;77.85;100976.69;5069343;28;20387;-45
2021/06/30 02:36:04;;;;;;;2.22;2.10;;;;;;;15.93;77.72;100972.16;5069437;28;20386;-50
2021/06/30 02:38:49;;;;;;;3.47;2.53;;;;;;;15.94;77.34;100970.22;5069282;28;20386;-49
2021/06/30 02:41:33;;;;;;;2.85;2.50;;;;;;;15.93;77.17;100966.66;5151345;27;21317;-49
2021/06/30 02:44:18;;;;;;;4.00;2.42;;;;;;;15.80;77.39;100974.84;5069695;28;20444;-53
2021/06/30 02:47:03;;;;;;;2.70;2.50;;;;;;;15.83;77.91;100972.31;5069667;28;20468;-54
2021/06/30 02:49:46;;;;;;;2.70;2.50;;;;;;;15.88;77.42;100961.25;5104557;27;1230340;-53
2021/06/30 02:52:31;;;;;;;3.65;2.60;;;;;;;15.89;76.89;100964.78;5069269;28;20456;-48
2021/06/30 02:55:15;;;;;;;3.33;2.63;;;;;;;15.77;76.95;100960.56;5069723;28;20832;-49
2021/06/30 02:57:58;;;;;;;4.10;2.80;;;;;;;15.72;77.67;100970.84;5082234;27;1921349;-51
2021/06/30 03:00:42;;;;;;;8.48;2.70;;;;;;;15.60;77.58;100964.97;5069710;28;20394;-49
2021/06/30 03:03:27;;;;;;;3.35;2.47;;;;;;;15.67;78.21;100971.69;5069511;28;20845;-50
2021/06/30 03:06:12;;;;;;;4.30;2.72;;;;;;;15.73;77.46;100964.25;5069077;28;20464;-46
2021/06/30 03:08:56;;;;;;;3.50;2.83;;;;;;;15.69;77.62;100963.97;5069702;28;20989;-47
2021/06/30 03:11:41;;;;;;;5.45;2.97;;;;;;;15.71;77.91;100958.22;5069569;28;20386;-50
2021/06/30 03:14:26;;;;;;;4.10;2.80;;;;;;;15.73;78.11;100964.25;5069607;28;20442;-50
2021/06/30 03:17:12;;;;;;;5.28;3.20;;;;;;;15.74;77.79;100969.44;5069558;28;20484;-49
2021/06/30 03:19:56;;;;;;;3.72;2.65;;;;;;;15.68;78.06;100973.34;5069372;28;20387;-51
2021/06/30 03:22:42;;;;;;;4.82;3.10;;;;;;;15.63;77.81;100983.59;5098955;27;1236572;-49
2021/06/30 03:25:26;;;;;;;4.47;2.70;;;;;;;15.61;77.97;100980.31;5105200;27;1219197;-49
2021/06/30 03:28:09;;;;;;;4.95;3.03;;;;;;;15.53;77.50;100979.88;5096302;27;1221772;-48
2021/06/30 03:30:53;;;;;;;5.95;2.63;;;;;;;15.52;78.29;100980.19;5069654;28;20832;-48
2021/06/30 03:33:38;;;;;;;4.55;2.90;;;;;;;15.54;77.58;100977.97;5069303;28;20461;-50
2021/06/30 03:36:22;;;;;;;4.68;3.10;;;;;;;15.54;78.40;100983.47;5069501;28;20387;-50
2021/06/30 03:39:07;;;;;;;4.30;2.92;;;;;;;15.56;78.01;100978.47;5069709;28;20387;-50
2021/06/30 03:41:50;;;;;;;3.97;2.90;;;;;;;15.58;77.71;100975.44;5094673;27;1246365;-49
2021/06/30 03:44:35;;;;;;;3.38;2.85;;;;;;;15.61;77.74;100983.91;5069616;28;20453;-50
2021/06/30 03:47:18;;;;;;;6.22;3.22;;;;;;;15.62;78.00;100996.50;5110329;27;1239826;-50
2021/06/30 03:50:06;;;;;;;6.32;3.38;;;;;;;15.60;77.85;100997.91;5069234;28;20473;-52
2021/06/30 03:52:52;;;;;;;6.47;3.67;;;;;;;15.57;78.02;100998.53;5069390;28;20739;-50
2021/06/30 03:55:36;;;;;;;5.65;3.30;;;;;;;15.62;78.02;101003.94;5069771;28;20389;-49
2021/06/30 03:58:21;;;;;;;7.68;3.90;;;;;;;15.64;77.53;100998.97;5069762;28;20382;-48
2021/06/30 04:01:05;;;;;;;6.65;3.90;;;;;;;15.66;78.00;100994.81;5069594;28;20492;-49
2021/06/30 04:03:55;;;;;;;6.20;3.45;;;;;;;15.55;78.15;101002.38;5065725;28;20455;-49
2021/06/30 04:06:39;;;;;;;6.40;3.78;;;;;;;15.56;78.03;100992.19;5119567;27;1234910;-47
2021/06/30 04:09:23;;;;;;;6.78;3.78;;;;;;;15.51;78.65;100993.09;5096601;27;1230738;-49
2021/06/30 04:12:07;;;;;;;5.43;3.63;;;;;;;15.46;78.87;100986.84;5069898;28;20382;-48
2021/06/30 04:14:52;;;;;;;6.00;3.35;;;;;;;15.40;79.09;100982.56;5069629;28;20395;-50
2021/06/30 04:17:35;;;;;;;5.97;3.70;;;;;;;15.42;79.40;100980.34;5107395;27;1231611;-49
2021/06/30 04:20:21;;;;;;;5.03;3.53;;;;;;;15.46;79.75;100976.69;5069369;28;20699;-48
2021/06/30 04:23:06;;;;;;;5.82;3.72;;;;;;;15.45;79.44;100979.75;5069430;28;20480;-49
2021/06/30 04:25:49;;;;;;;8.48;3.70;;;;;;;15.46;79.62;100984.09;5101373;27;1237268;-48
2021/06/30 04:28:33;;;;;;;4.50;3.30;;;;;;;15.48;79.44;100990.13;5069357;28;20387;-49
2021/06/30 04:31:44;;;;;;;8.98;4.15;;;;;;;15.42;79.22;100991.31;5069388;28;20395;-50
2021/06/30 04:34:28;;;;;;;6.18;3.45;;;;;;;15.32;79.76;100987.59;5069342;28;20468;-49
2021/06/30 04:37:12;;;;;;;5.40;3.65;;;;;;;15.30;79.65;100984.34;5111592;27;1218674;-49
2021/06/30 04:39:55;;;;;;;6.03;3.95;;;;;;;15.33;79.95;100985.69;5096777;27;1241777;-51
2021/06/30 04:42:39;;;;;;;6.68;3.63;;;;;;;15.33;79.68;100997.47;5069593;28;20394;-48
2021/06/30 04:45:24;;;;;;;4.63;3.30;;;;;;;15.36;79.72;100998.00;5112692;27;1224266;-47
2021/06/30 04:48:08;;;;;;;5.15;3.15;;;;;;;15.37;79.86;101000.44;5069016;28;20386;-47
2021/06/30 04:50:54;;;;;;;6.20;3.55;;;;;;;15.41;79.74;100997.91;5069405;28;20913;-49
2021/06/30 04:53:43;;;;;;;4.70;3.22;;;;;;;15.39;79.63;101002.88;5098641;27;20337;-49
2021/06/30 04:56:29;;;;;;;3.85;2.83;;;;;;;15.34;79.70;101003.75;5111537;27;1222416;-49
2021/06/30 04:59:12;;;;;;;4.57;3.10;;;;;;;15.30;79.33;100997.25;5100311;27;1229041;-49
2021/06/30 05:01:56;;;;;;;3.67;2.83;;;;;;;15.29;79.72;101003.84;5068842;28;20477;-48
2021/06/30 05:04:41;;;;;;;4.22;2.85;;;;;;;15.36;79.99;101000.72;5069377;28;20452;-50
2021/06/30 05:07:27;;;;;;;4.82;3.00;;;;;;;15.34;79.70;100999.13;5069532;28;20379;-49
2021/06/30 05:10:12;;;;;;;3.83;2.97;;;;;;;15.34;80.08;101001.84;5069470;28;20745;-49
2021/06/30 05:12:56;;;;;;;3.17;2.88;;;;;;;15.39;79.81;101003.69;5069412;28;20387;-49
2021/06/30 05:15:41;;;;;;;4.38;2.92;;;;;;;15.41;79.39;101012.47;5069216;28;20464;-49
2021/06/30 05:18:24;;;;;;;4.90;3.55;;;;;;;15.34;79.43;101010.09;5106778;27;1212273;-48
2021/06/30 05:21:07;;;;;;;3.50;3.03;;;;;;;15.30;79.98;101011.78;5097317;27;1243234;-50
2021/06/30 05:23:51;;;;;;;5.10;3.45;;;;;;;15.25;79.67;101002.78;5069544;28;20382;-52
2021/06/30 05:26:35;;;;;;;6.85;3.28;;;;;;;15.26;79.65;101005.25;5095056;27;1221901;-49
2021/06/30 05:29:19;;;;;;;4.68;3.10;;;;;;;15.20;79.42;100994.63;5069489;28;20394;-52
2021/06/30 05:32:04;;;;;;;5.78;3.20;;;;;;;15.21;80.06;100997.09;5068925;28;20469;-49
2021/06/30 05:34:47;;;;;;;5.22;3.40;;;;;;;15.18;79.75;101002.34;5095143;27;1288741;-48
2021/06/30 05:37:34;;;;;;;5.43;3.25;;;;;;;15.08;80.03;101001.38;5110119;27;20327;-49
2021/06/30 05:40:19;;;;;;;4.93;3.20;;;;;;;15.11;80.72;101008.19;5056149;28;20457;-47
2021/06/30 05:43:04;;;;;;;4.90;3.67;;;;;;;15.14;80.34;101007.59;5059932;28;20444;-49
2021/06/30 05:45:48;;;;;;;6.57;3.50;;;;;;;15.17;80.58;101007.00;5109430;27;20469;-45
2021/06/30 05:48:32;;;;;;;6.93;4.00;;;;;;;15.17;80.06;101007.00;5098282;27;1226093;-45
2021/06/30 05:51:16;;;;;;;11.23;3.65;;;;;;;15.20;80.35;101000.94;5069377;28;20395;-48
2021/06/30 05:54:00;;;;;;;6.10;3.50;;;;;;;15.22;80.12;101004.19;5097325;27;1228334;-47
2021/06/30 05:56:47;;;;;;;5.50;4.03;;;;;;;15.19;80.50;101004.78;5109891;27;20442;-46
2021/06/30 05:59:31;;;;;;;6.03;4.05;;;;;;;15.13;79.89;101008.72;5069081;28;20382;-49
2021/06/30 06:02:15;;;;;;;6.80;4.30;;;;;;;15.13;80.42;101006.00;5096297;27;1240825;-50
2021/06/30 06:04:58;;;;;;;5.85;3.83;;;;;;;15.06;79.84;101008.28;5111229;27;1221219;-48
2021/06/30 06:07:41;;;;;;;5.05;3.47;;;;;;;15.09;80.31;101015.91;5095951;27;1238922;-48
2021/06/30 06:10:25;;;;;;;5.33;4.00;;;;;;;15.10;80.00;101015.63;4717575;28;10000612;-49
2021/06/30 06:13:10;;;;;;;4.45;3.65;;;;;;;15.01;80.15;101016.53;5069380;28;20402;-47
2021/06/30 06:15:53;;;;;;;9.52;3.88;;;;;;;15.01;80.61;101009.16;5078725;27;1234772;-49
2021/06/30 06:18:38;;;;;;;6.50;3.90;;;;;;;15.08;80.90;101017.00;5062209;28;20383;-47
2021/06/30 06:21:23;;;;;;;7.53;3.70;;;;;;;15.08;80.44;101017.00;5046691;28;20906;-45
2021/06/30 06:24:08;;;;;;;6.18;3.90;;;;;;;15.09;80.31;101010.41;5099209;27;1229636;-44
2021/06/30 06:26:53;;;;;;;5.90;3.78;;;;;;;15.11;80.55;101013.69;5062308;28;20596;-49
2021/06/30 06:29:39;;;;;;;5.40;3.50;;;;;;;15.04;80.51;101015.97;5058275;28;20392;-45
2021/06/30 06:32:22;;;;;;;5.65;3.58;;;;;;;14.91;80.63;101009.25;5075485;27;1919508;-48
2021/06/30 06:35:06;;;;;;;5.22;3.83;;;;;;;14.92;80.90;101016.38;5096958;27;1226137;-48
2021/06/30 06:37:50;;;;;;;5.25;3.65;;;;;;;14.95;80.91;101009.50;5103956;27;1219325;-49
2021/06/30 06:40:33;;;;;;;5.75;3.53;;;;;;;15.04;80.77;101014.03;5096563;27;1230393;-48
2021/06/30 06:43:16;;;;;;;6.22;3.83;;;;;;;15.11;80.39;101016.44;5123752;27;1242065;-51
2021/06/30 06:46:01;;;;;;;5.47;3.70;;;;;;;15.14;80.40;101018.59;5062028;28;20391;-48
2021/06/30 06:48:45;;;;;;;6.15;3.97;;;;;;;15.06;79.88;101016.50;5066953;28;20497;-49
2021/06/30 06:51:29;;;;;;;8.82;4.38;;;;;;;15.05;80.63;101021.16;5066957;28;20391;-48
2021/06/30 06:54:13;;;;;;;6.45;4.32;;;;;;;15.03;80.08;101028.03;5091182;27;1285552;-48
2021/06/30 06:56:57;;;;;;;5.25;3.75;;;;;;;15.05;80.18;101028.56;5067745;28;20391;-45
2021/06/30 06:59:42;;;;;;;5.90;4.25;;;;;;;15.04;79.36;101024.22;5068760;28;20449;-50
2021/06/30 07:02:25;;;;;;;5.90;4.40;;;;;;;15.01;80.20;101027.50;5093543;27;1240379;-47
2021/06/30 07:05:08;;;;;;;6.45;4.40;;;;;;;14.98;80.07;101019.88;5103586;27;1232097;-47
2021/06/30 07:07:51;;;;;;;5.85;4.00;;;;;;;14.96;79.88;101027.59;5098864;27;1233203;-48
2021/06/30 07:10:34;;;;;;;5.93;4.22;;;;;;;14.98;80.04;101028.91;5106250;27;1411841;-49
2021/06/30 07:13:18;;;;;;;4.88;3.65;;;;;;;14.97;80.60;101031.97;5109382;27;20881;-45
2021/06/30 07:16:04;;;;;;;6.95;3.88;;;;;;;15.00;80.24;101034.94;5069344;28;20828;-48
2021/06/30 07:18:50;;;;;;;4.75;3.80;;;;;;;15.04;80.18;101032.44;5109810;27;20338;-49
2021/06/30 07:21:34;;;;;;;5.85;4.38;;;;;;;15.07;80.26;101031.84;5069092;28;20445;-49
2021/06/30 07:24:18;;;;;;;6.07;4.68;;;;;;;15.03;80.04;101047.25;5069311;28;20408;-51
2021/06/30 07:27:02;;;;;;;6.28;4.50;;;;;;;14.95;80.58;101036.94;5110354;27;1228206;-47
2021/06/30 07:29:45;;;;;;;6.30;4.53;;;;;;;14.99;80.36;101048.97;5094710;27;1229591;-48
2021/06/30 07:32:28;;;;;;;6.90;4.38;;;;;;;14.99;80.26;101038.00;5101336;27;1259887;-48
2021/06/30 07:35:12;;;;;;;7.00;4.05;;;;;;;15.06;80.72;101038.47;5069182;28;20500;-47
2021/06/30 07:37:57;;;;;;;7.35;4.97;;;;;;;15.13;80.31;101049.91;5069444;28;20383;-51
2021/06/30 07:40:40;;;;;;;22.27;7.57;;;;;;;15.19;80.28;101043.22;5109049;27;1242768;-49
2021/06/30 07:43:24;;;;;;;8.30;5.28;;;;;;;15.19;79.71;101043.22;5089275;27;20381;-45
2021/06/30 07:46:05;;;;;;;7.50;4.70;;;;;;;15.13;80.00;101045.22;5109872;27;20384;-48
2021/06/30 07:48:44;;;;;;;6.47;4.20;;;;;;;15.10;79.76;101048.56;5069111;28;20382;-50
2021/06/30 07:51:24;;;;;;;5.93;4.53;;;;;;;15.13;80.12;101053.47;5069161;28;20828;-48
2021/06/30 07:54:05;;;;;;;6.28;4.40;;;;;;;15.10;80.04;101050.47;5069328;28;20394;-49
2021/06/30 07:56:45;;;;;;;8.38;4.50;;;;;;;15.12;80.32;101056.47;5069081;28;20386;-49
2021/06/30 07:59:23;;;;;;;7.90;4.88;;;;;;;15.18;80.09;101052.56;5094510;27;1228013;-47
2021/06/30 08:02:02;;;;;;;7.30;4.15;;;;;;;15.21;79.88;101056.66;5096036;27;1247808;-47
2021/06/30 08:04:41;;;;;;;8.18;4.13;;;;;;;15.25;79.64;101064.03;5068291;28;20461;-49
2021/06/30 08:07:21;;;;;;;8.00;4.28;;;;;;;15.28;79.54;101057.13;5102950;27;1236047;-49
2021/06/30 08:10:02;;;;;;;4.93;3.90;;;;;;;15.29;79.44;101054.06;5034070;28;20477;-49
2021/06/30 08:12:42;;;;;;;7.35;4.00;;;;;;;15.29;79.93;101059.56;5062770;28;20399;-46
2021/06/30 08:15:24;;;;;;;7.45;3.90;;;;;;;15.25;79.25;101060.44;5061590;28;20383;-49
2021/06/30 08:18:03;;;;;;;5.93;4.18;;;;;;;15.26;79.87;101062.09;5062194;28;20995;-48
2021/06/30 08:20:48;;;;;;;6.00;4.05;;;;;;;15.24;79.86;101062.38;5109428;27;20453;-50
2021/06/30 08:23:26;;;;;;;7.28;4.00;;;;;;;15.22;80.16;101070.06;5099351;27;1240934;-49
2021/06/30 08:26:04;;;;;;;5.88;3.80;;;;;;;15.23;79.87;101063.50;5095984;27;1230020;-49
2021/06/30 08:28:44;;;;;;;5.65;3.92;;;;;;;15.18;79.89;101065.50;5103497;27;1232825;-48
2021/06/30 08:31:24;;;;;;;5.25;3.58;;;;;;;15.12;81.02;101065.53;5103033;27;20389;-49
2021/06/30 08:34:04;;;;;;;5.32;3.67;;;;;;;15.15;80.24;101058.63;5061851;28;20489;-52
2021/06/30 08:36:44;;;;;;;8.48;4.05;;;;;;;15.21;80.28;101057.47;5062295;28;20889;-50
2021/06/30 08:39:22;;;;;;;6.82;3.65;;;;;;;15.27;80.01;101056.31;5102966;27;1229880;-50
2021/06/30 08:42:03;;;;;;;8.70;5.30;;;;;;;15.25;79.18;101058.53;5061936;28;20398;-47
2021/06/30 08:44:46;;;;;;;5.85;4.10;;;;;;;15.23;79.27;101065.44;5057583;28;20486;-52
2021/06/30 08:47:27;;;;;;;4.97;3.70;;;;;;;15.20;79.38;101066.84;5062069;28;20387;-51
2021/06/30 08:50:42;;;;;;;5.28;3.70;;;;;;;15.11;79.27;101068.59;5107728;27;1238435;-50
2021/06/30 08:53:23;;;;;;;5.50;4.10;;;;;;;15.11;79.61;101063.91;5065113;28;20476;-50
2021/06/30 08:56:03;;;;;;;4.95;3.70;;;;;;;15.16;79.79;101060.28;5065001;28;21008;-49
2021/06/30 08:58:43;;;;;;;4.38;3.35;;;;;;;15.21;80.42;101068.44;5104931;27;20384;-50
2021/06/30 09:01:22;;;;;;;5.10;3.80;;;;;;;15.28;80.18;101068.91;5054123;28;20516;-50
2021/06/30 09:04:01;;;;;;;4.43;3.80;;;;;;;15.27;79.83;101072.78;5109571;27;1214073;-52
2021/06/30 09:06:41;;;;;;;6.20;4.00;;;;;;;15.27;80.22;101078.28;5052602;28;20412;-50
2021/06/30 09:09:20;;;;;;;7.07;4.38;;;;;;;15.27;79.94;101078.28;5068358;28;20390;-47
2021/06/30 09:12:00;;;;;;;6.35;4.20;;;;;;;15.30;80.11;101082.34;5068671;28;20893;-50
2021/06/30 09:14:42;;;;;;;5.35;3.80;;;;;;;15.29;80.06;101081.50;5064570;28;20447;-48
2021/06/30 09:17:27;;;;;;;4.50;3.90;;;;;;;15.28;79.80;101085.38;5067131;28;20391;-50
2021/06/30 09:20:08;;;;;;;7.45;3.92;;;;;;;15.24;79.97;101087.06;5066646;28;20397;-48
2021/06/30 09:22:51;;;;;;;4.43;3.63;;;;;;;15.26;80.14;101093.09;5098502;27;1229824;-50
2021/06/30 09:25:41;;;;;;;4.20;3.47;;;;;;;15.29;80.69;101081.50;5067101;28;20480;-48
2021/06/30 09:28:24;;;;;;;5.72;4.07;;;;;;;15.32;80.70;101097.44;5064441;28;20443;-47
2021/06/30 09:31:09;;;;;;;4.60;3.60;;;;;;;15.25;80.98;101094.22;5107041;27;20485;-48
2021/06/30 09:33:53;;;;;;;5.00;3.80;;;;;;;15.22;81.07;101097.53;5087372;27;20392;-52
2021/06/30 09:36:57;;;;;;;4.57;3.85;;;;;;;15.24;81.53;101089.00;5064607;28;20464;-49
2021/06/30 09:39:56;;;;;;;4.30;3.40;;;;;;;15.29;82.15;101100.72;5066529;28;20479;-52
2021/06/30 09:42:35;;;;;;;6.30;3.53;;;;;;;15.32;82.16;101096.59;5110204;27;1272467;-49
2021/06/30 09:45:19;;;;;;;5.60;3.60;;;;;;;15.30;82.10;101101.56;5064509;28;20388;-50
2021/06/30 09:47:59;;;;;;;4.57;3.70;;;;;;;15.31;82.40;101098.53;5066725;28;20817;-48
2021/06/30 09:50:38;;;;;;;4.63;3.50;;;;;;;15.29;81.88;101099.91;5122820;27;1248645;-53
2021/06/30 09:53:51;;;;;;;5.28;3.90;;;;;;;15.32;82.50;101102.91;5110427;27;20384;-49
2021/06/30 09:56:39;;;;;;;4.38;3.67;;;;;;;15.38;81.97;101111.09;5069478;28;20379;-49
2021/06/30 09:59:21;;;;;;;5.88;4.20;;;;;;;15.41;82.00;101110.50;5094871;27;1238818;-49
2021/06/30 10:02:11;;;;;;;6.05;3.80;;;;;;;15.40;81.97;101109.69;5069383;28;20130;-54
2021/06/30 10:04:59;;;;;;;4.78;3.72;;;;;;;15.41;82.22;101115.97;5081072;27;1918432;-54
2021/06/30 10:07:40;;;;;;;6.78;4.50;;;;;;;15.39;82.63;101118.19;5097943;27;1247157;-49
2021/06/30 10:10:21;;;;;;;5.60;3.97;;;;;;;15.32;82.18;101113.91;5092567;27;20390;-54
2021/06/30 10:13:02;;;;;;;5.40;4.10;;;;;;;15.31;82.56;101105.94;5111400;27;20404;-53
2021/06/30 10:15:43;;;;;;;5.47;4.20;;;;;;;15.32;82.73;101113.91;5064058;28;20976;-49
2021/06/30 10:18:21;;;;;;;6.82;3.92;;;;;;;15.36;82.64;101116.06;5100177;27;1248839;-48
2021/06/30 10:21:00;;;;;;;5.72;4.32;;;;;;;15.40;82.87;101114.38;5062636;28;20450;-50
2021/06/30 10:23:39;;;;;;;8.55;4.88;;;;;;;15.37;82.83;101117.66;5102480;27;1227061;-50
2021/06/30 10:26:20;;;;;;;6.10;4.45;;;;;;;15.29;82.41;101108.16;5061585;28;20400;-52
2021/06/30 10:29:00;;;;;;;6.32;4.32;;;;;;;15.29;83.24;101108.97;5100440;27;1232141;-50
2021/06/30 10:31:42;;;;;;;5.65;4.53;;;;;;;15.30;83.90;101104.31;5060519;28;20395;-50
2021/06/30 10:34:27;;;;;;;7.13;4.88;;;;;;;15.31;83.69;101109.50;5105327;27;1210240;-48
2021/06/30 10:37:27;;;;;;;6.30;4.70;;;;;;;15.37;83.58;101106.69;5097332;27;1235509;-49
2021/06/30 10:40:07;;;;;;;5.85;4.50;;;;;;;15.40;82.95;101108.88;5103159;27;1232576;-51
2021/06/30 10:42:52;;;;;;;5.90;4.43;;;;;;;15.49;83.32;101096.09;5079304;27;1227651;-50
2021/06/30 10:45:31;;;;;;;6.18;4.20;;;;;;;15.57;83.19;101089.97;5060946;28;20410;-48
2021/06/30 10:48:14;;;;;;;5.93;4.00;;;;;;;15.63;82.83;101085.22;5132592;27;1220018;-48
2021/06/30 10:50:57;;;;;;;6.15;4.68;;;;;;;15.68;83.21;101088.72;5068503;28;20507;-51
2021/06/30 10:53:37;;;;;;;5.45;4.38;;;;;;;15.65;83.43;101083.81;5101207;27;1217172;-50
2021/06/30 10:56:16;;;;;;;9.10;5.70;;;;;;;15.63;82.74;101080.53;5109948;27;20388;-48
2021/06/30 10:59:02;;;;;;;5.75;4.40;;;;;;;15.59;82.95;101085.00;5069533;28;20480;-51
2021/06/30 11:02:12;;;;;;;4.72;4.00;;;;;;;15.66;83.27;101099.19;5081808;27;1221720;-51
2021/06/30 11:04:53;;;;;;;6.72;4.70;;;;;;;15.64;83.10;101087.69;5089086;27;20837;-52
2021/06/30 11:07:34;;;;;;;5.80;4.50;;;;;;;15.66;83.04;101090.94;5067329;28;20449;-50
2021/06/30 11:10:37;;;;;;;8.68;5.20;;;;;;;15.65;82.73;101105.78;5067994;28;20391;-52
2021/06/30 11:13:18;;;;;;;7.60;5.30;;;;;;;15.67;82.85;101102.75;5069517;28;20912;-53
2021/06/30 11:15:56;;;;;;;9.15;5.18;;;;;;;15.72;82.36;101103.50;5104985;27;1228180;-51
2021/06/30 11:18:55;;;;;;;6.50;4.40;;;;;;;15.71;81.79;101104.63;5062042;28;20982;-50
2021/06/30 11:21:53;;;;;;;6.18;4.20;;;;;;;15.67;82.71;101114.53;5110061;27;20453;-51
2021/06/30 11:24:49;;;;;;;6.35;4.40;;;;;;;15.64;81.84;101115.13;5064474;28;20728;-53
2021/06/30 11:27:34;;;;;;;6.57;4.53;;;;;;;15.63;82.76;101116.25;5062152;28;20596;-50
2021/06/30 11:30:27;;;;;;;6.78;4.82;;;;;;;15.62;82.52;101117.38;5079627;27;1920262;-53
2021/06/30 11:33:12;;;;;;;6.72;4.90;;;;;;;15.62;82.71;101117.38;5049539;28;20933;-50
2021/06/30 11:35:52;;;;;;;5.72;4.32;;;;;;;15.66;82.27;101118.41;5069118;28;20391;-50
2021/06/30 11:38:32;;;;;;;7.65;5.45;;;;;;;15.64;82.23;101123.38;5111878;27;1215734;-49
2021/06/30 11:41:15;;;;;;;8.40;4.97;;;;;;;15.63;82.24;101121.72;5067065;28;20393;-51
2021/06/30 11:43:56;;;;;;;7.28;4.85;;;;;;;15.63;81.63;101129.97;5063526;28;20387;-48
2021/06/30 11:46:36;;;;;;;7.05;4.50;;;;;;;15.67;81.80;101135.72;5058989;28;20388;-51
2021/06/30 11:49:20;;;;;;;5.85;4.25;;;;;;;15.69;81.57;101128.00;5066525;28;20477;-51
2021/06/30 11:52:01;;;;;;;5.70;4.20;;;;;;;15.68;81.47;101134.59;5069473;28;20383;-50
2021/06/30 11:54:41;;;;;;;5.03;4.10;;;;;;;15.67;81.14;101136.53;5089591;27;20385;-50
2021/06/30 11:57:20;;;;;;;6.15;3.75;;;;;;;15.62;81.22;101131.09;5097781;27;1232173;-51
2021/06/30 12:00:05;;;;;;;8.25;4.70;;;;;;;15.58;81.53;101130.03;5069530;28;20386;-51
2021/06/30 12:02:51;;;;;;;6.00;3.90;;;;;;;15.62;82.34;101127.53;5070563;27;1608739;-51
2021/06/30 12:05:32;;;;;;;7.10;5.03;;;;;;;15.66;82.55;101129.41;5069524;28;20485;-51
2021/06/30 12:08:12;;;;;;;8.90;4.78;;;;;;;15.70;82.34;101126.91;5106100;27;1247572;-48
2021/06/30 12:10:51;;;;;;;5.70;4.55;;;;;;;15.71;82.56;101134.84;5069481;28;20884;-52
2021/06/30 12:13:30;;;;;;;7.95;5.13;;;;;;;15.64;82.58;101144.53;5105216;27;1227667;-51
2021/06/30 12:16:09;;;;;;;6.88;4.75;;;;;;;15.61;83.10;101145.97;5069401;28;20387;-49
2021/06/30 12:18:49;;;;;;;7.15;4.60;;;;;;;15.63;82.63;101146.44;5069188;28;20468;-52
2021/06/30 12:21:36;;;;;;;7.95;4.90;;;;;;;15.65;82.61;101143.41;5067642;28;20979;-53
2021/06/30 12:24:22;;;;;;;6.78;5.10;;;;;;;15.65;83.13;101148.91;5058758;28;20451;-52
2021/06/30 12:27:07;;;;;;;7.57;5.05;;;;;;;15.66;83.59;101140.41;5069390;28;20382;-50
2021/06/30 12:30:06;;;;;;;7.93;5.20;;;;;;;15.72;83.73;101141.97;5069276;28;20387;-50
2021/06/30 12:32:48;;;;;;;8.00;4.75;;;;;;;15.73;83.13;101138.13;5069094;28;20472;-51
2021/06/30 12:35:48;;;;;;;7.90;5.65;;;;;;;15.81;83.40;101144.09;5069355;28;20390;-50
2021/06/30 12:38:31;;;;;;;7.40;5.05;;;;;;;15.74;81.79;101141.69;5082540;27;1969253;-49